createdAt,value
2023-05-16T00:00:58.440Z,6.37
2023-05-16T00:03:26.494Z,6.27
2023-05-16T00:05:56.120Z,6.50
2023-05-16T00:08:24.059Z,7.07
2023-05-16T00:10:51.941Z,7.27
2023-05-16T00:13:22.390Z,7.00
2023-05-16T00:15:50.336Z,7.13
2023-05-16T00:18:18.193Z,7.00
2023-05-16T00:20:46.196Z,7.00
2023-05-16T00:23:15.425Z,7.37
2023-05-16T00:25:43.394Z,6.97
2023-05-16T00:28:11.407Z,6.50
2023-05-16T00:30:39.274Z,5.87
2023-05-16T00:33:07.189Z,6.10
2023-05-16T00:35:35.123Z,6.53
2023-05-16T00:38:03.009Z,6.83
2023-05-16T00:40:32.418Z,7.03
2023-05-16T00:43:00.610Z,6.43
2023-05-16T00:45:28.479Z,6.57
2023-05-16T00:47:56.548Z,7.20
2023-05-16T00:50:24.563Z,7.60
2023-05-16T00:52:52.566Z,6.50
2023-05-16T00:55:20.531Z,5.80
2023-05-16T00:57:50.136Z,5.60
2023-05-16T01:00:19.966Z,6.40
2023-05-16T01:02:48.140Z,6.53
2023-05-16T01:05:16.142Z,5.17
2023-05-16T01:07:43.978Z,5.40
2023-05-16T01:10:12.568Z,6.03
2023-05-16T01:12:47.345Z,5.43
2023-05-16T01:15:23.879Z,5.40
2023-05-16T01:17:59.022Z,5.97
2023-05-16T01:20:36.945Z,6.57
2023-05-16T01:23:28.567Z,5.90
2023-05-16T01:26:00.717Z,6.53
2023-05-16T01:28:30.257Z,7.07
2023-05-16T01:30:58.217Z,7.10
2023-05-16T01:33:26.102Z,6.93
2023-05-16T01:36:01.545Z,7.03
2023-05-16T01:38:41.788Z,7.07
2023-05-16T01:41:17.355Z,6.93
2023-05-16T01:43:50.378Z,7.23
2023-05-16T01:49:07.129Z,7.33
2023-05-16T01:51:39.927Z,7.80
2023-05-16T01:54:13.812Z,7.80
2023-05-16T01:56:48.550Z,5.50
2023-05-16T01:59:18.279Z,6.13
2023-05-16T02:01:46.306Z,5.90
2023-05-16T02:04:15.378Z,6.40
2023-05-16T02:06:44.087Z,5.60
2023-05-16T02:09:11.930Z,6.17
2023-05-16T02:11:39.764Z,6.47
2023-05-16T02:14:07.622Z,5.93
2023-05-16T02:16:37.395Z,6.50
2023-05-16T02:19:05.462Z,6.33
2023-05-16T02:21:33.300Z,6.20
2023-05-16T02:24:01.716Z,7.00
2023-05-16T02:26:29.670Z,7.00
2023-05-16T02:28:57.533Z,7.00
2023-05-16T02:31:29.840Z,7.63
2023-05-16T02:33:59.620Z,6.70
2023-05-16T02:36:27.558Z,6.90
2023-05-16T02:38:55.593Z,6.33
2023-05-16T02:41:24.037Z,6.30
2023-05-16T02:43:51.886Z,5.70
2023-05-16T02:46:27.491Z,6.73
2023-05-16T02:48:56.104Z,6.77
2023-05-16T02:51:26.693Z,7.10
2023-05-16T02:53:57.033Z,7.70
2023-05-16T02:56:25.140Z,7.50
2023-05-16T02:58:55.095Z,6.60
2023-05-16T03:01:23.188Z,8.10
2023-05-16T03:03:51.141Z,9.00
2023-05-16T03:06:19.112Z,8.43
2023-05-16T03:08:48.367Z,8.53
2023-05-16T03:11:17.433Z,8.47
2023-05-16T03:13:45.250Z,9.23
2023-05-16T03:16:13.159Z,8.60
2023-05-16T03:18:41.400Z,6.70
2023-05-16T03:21:09.320Z,6.83
2023-05-16T03:23:37.278Z,6.13
2023-05-16T03:26:06.580Z,6.63
2023-05-16T03:28:34.458Z,6.80
2023-05-16T03:31:02.431Z,6.37
2023-05-16T03:33:30.270Z,6.23
2023-05-16T03:35:58.389Z,5.83
2023-05-16T03:38:26.334Z,6.17
2023-05-16T03:40:54.252Z,5.40
2023-05-16T03:43:23.576Z,5.60
2023-05-16T03:45:51.437Z,5.30
2023-05-16T03:48:19.365Z,5.90
2023-05-16T03:50:47.884Z,6.77
2023-05-16T03:53:15.782Z,7.93
2023-05-16T03:55:43.961Z,7.30
2023-05-16T03:58:12.275Z,7.57
2023-05-16T04:00:41.532Z,7.57
2023-05-16T04:03:09.739Z,7.87
2023-05-16T04:05:37.706Z,6.97
2023-05-16T04:08:05.982Z,7.77
2023-05-16T04:10:33.886Z,7.70
2023-05-16T04:13:01.751Z,7.93
2023-05-16T04:15:29.864Z,8.40
2023-05-16T04:17:59.496Z,8.37
2023-05-16T04:20:27.473Z,8.60
2023-05-16T04:22:55.562Z,8.30
2023-05-16T04:25:23.418Z,8.20
2023-05-16T04:27:51.308Z,9.60
2023-05-16T04:30:19.420Z,8.80
2023-05-16T04:32:47.316Z,8.33
2023-05-16T04:35:16.662Z,8.40
2023-05-16T04:37:44.514Z,8.23
2023-05-16T04:40:12.992Z,8.17
2023-05-16T04:42:40.907Z,7.67
2023-05-16T04:45:11.435Z,8.70
2023-05-16T04:47:39.782Z,8.23
2023-05-16T04:50:10.082Z,8.53
2023-05-16T04:52:39.354Z,8.73
2023-05-16T04:55:08.173Z,8.33
2023-05-16T04:57:36.033Z,8.30
2023-05-16T05:00:06.932Z,9.17
2023-05-16T05:02:35.005Z,9.07
2023-05-16T05:05:03.424Z,9.00
2023-05-16T05:07:31.381Z,9.60
2023-05-16T05:10:00.957Z,10.03
2023-05-16T05:12:28.885Z,10.80
2023-05-16T05:14:56.934Z,10.60
2023-05-16T05:17:24.970Z,9.30
2023-05-16T05:19:52.907Z,9.47
2023-05-16T05:22:20.845Z,9.20
2023-05-16T05:24:48.724Z,8.77
2023-05-16T05:27:18.016Z,9.70
2023-05-16T05:29:45.913Z,8.93
2023-05-16T05:32:14.162Z,8.77
2023-05-16T05:34:42.026Z,9.07
2023-05-16T05:37:09.888Z,9.10
2023-05-16T05:39:37.897Z,8.97
2023-05-16T05:42:06.147Z,9.03
2023-05-16T05:44:35.467Z,8.97
2023-05-16T05:47:03.362Z,9.30
2023-05-16T05:49:32.215Z,10.40
2023-05-16T05:52:00.119Z,10.10
2023-05-16T05:54:28.113Z,10.07
2023-05-16T05:56:55.941Z,9.70
2023-05-16T05:59:23.791Z,9.80
2023-05-16T06:01:53.224Z,9.00
2023-05-16T06:04:21.258Z,8.90
2023-05-16T06:06:49.508Z,9.53
2023-05-16T06:09:17.370Z,8.30
2023-05-16T06:11:46.121Z,8.07
2023-05-16T06:14:15.270Z,7.23
2023-05-16T06:16:43.639Z,7.43
2023-05-16T06:19:16.227Z,7.17
2023-05-16T06:21:44.294Z,6.93
2023-05-16T06:24:12.611Z,6.33
2023-05-16T06:26:40.573Z,6.97
2023-05-16T06:29:08.621Z,7.30
2023-05-16T06:31:36.789Z,7.03
2023-05-16T06:34:04.685Z,7.07
2023-05-16T06:36:33.986Z,7.57
2023-05-16T06:39:01.809Z,7.53
2023-05-16T06:41:29.641Z,7.93
2023-05-16T06:43:57.889Z,7.63
2023-05-16T06:46:26.351Z,7.77
2023-05-16T06:48:54.512Z,7.83
2023-05-16T06:51:22.508Z,7.47
2023-05-16T06:53:51.836Z,7.63
2023-05-16T06:56:19.861Z,7.50
2023-05-16T06:58:49.604Z,7.23
2023-05-16T07:01:17.821Z,7.53
2023-05-16T07:03:45.858Z,6.93
2023-05-16T07:06:13.866Z,7.60
2023-05-16T07:08:41.776Z,7.32
2023-05-16T07:11:12.022Z,7.60
2023-05-16T07:13:39.903Z,7.18
2023-05-16T07:16:10.930Z,7.55
2023-05-16T07:18:39.104Z,6.55
2023-05-16T07:21:07.070Z,7.20
2023-05-16T07:23:34.930Z,7.60
2023-05-16T07:26:03.507Z,7.60
2023-05-16T07:28:32.826Z,8.15
2023-05-16T07:31:00.895Z,7.57
2023-05-16T07:33:28.856Z,7.15
2023-05-16T07:36:04.375Z,7.32
2023-05-16T07:38:43.858Z,7.65
2023-05-16T07:41:11.845Z,7.88
2023-05-16T07:43:43.241Z,8.15
2023-05-16T07:46:14.859Z,7.82
2023-05-16T07:48:42.797Z,8.05
2023-05-16T07:51:10.742Z,7.75
2023-05-16T07:53:38.614Z,7.70
2023-05-16T07:56:07.429Z,8.07
2023-05-16T07:58:35.580Z,7.88
2023-05-16T08:01:05.045Z,7.93
2023-05-16T08:03:33.305Z,7.53
2023-05-16T08:06:01.314Z,7.90
2023-05-16T08:08:29.377Z,7.05
2023-05-16T08:10:57.756Z,7.80
2023-05-16T08:13:25.653Z,7.22
2023-05-16T08:15:54.986Z,7.70
2023-05-16T08:18:24.363Z,7.50
2023-05-16T08:20:52.389Z,7.07
2023-05-16T08:23:20.274Z,6.50
2023-05-16T08:25:48.458Z,6.82
2023-05-16T08:28:16.749Z,7.30
2023-05-16T08:30:46.454Z,7.20
2023-05-16T08:33:16.156Z,7.50
2023-05-16T08:35:46.352Z,6.88
2023-05-16T08:38:14.264Z,6.90
2023-05-16T08:40:42.834Z,6.82
2023-05-16T08:43:10.899Z,6.97
2023-05-16T08:45:38.885Z,7.22
2023-05-16T08:48:10.454Z,7.28
2023-05-16T08:50:39.161Z,7.18
2023-05-16T08:53:12.821Z,7.32
2023-05-16T08:55:42.609Z,7.13
2023-05-16T08:58:10.580Z,7.68
2023-05-16T09:00:40.820Z,7.50
2023-05-16T09:03:09.190Z,7.50
2023-05-16T09:05:37.311Z,7.60
2023-05-16T09:08:05.494Z,7.55
2023-05-16T09:10:34.810Z,7.97
2023-05-16T09:13:02.736Z,8.20
2023-05-16T09:15:33.378Z,8.98
2023-05-16T09:18:02.428Z,8.60
2023-05-16T09:20:31.324Z,8.48
2023-05-16T09:23:00.936Z,7.85
2023-05-16T09:25:32.218Z,7.75
2023-05-16T09:28:03.590Z,6.93
2023-05-16T09:30:33.833Z,7.55
2023-05-16T09:33:02.265Z,7.25
2023-05-16T09:35:43.970Z,7.50
2023-05-16T09:38:16.707Z,7.30
2023-05-16T09:40:45.682Z,6.88
2023-05-16T09:43:18.061Z,7.22
2023-05-16T09:45:49.730Z,6.72
2023-05-16T09:48:18.512Z,7.22
2023-05-16T09:50:52.356Z,6.80
2023-05-16T09:53:27.533Z,6.78
2023-05-16T09:56:05.176Z,8.02
2023-05-16T09:58:35.968Z,6.82
2023-05-16T10:01:04.601Z,6.40
2023-05-16T10:03:34.236Z,6.63
2023-05-16T10:06:02.843Z,6.90
2023-05-16T10:08:36.196Z,6.47
2023-05-16T10:11:06.558Z,5.85
2023-05-16T10:13:37.882Z,6.15
2023-05-16T10:16:09.087Z,6.07
2023-05-16T10:18:39.475Z,6.03
2023-05-16T10:21:11.252Z,5.50
2023-05-16T10:23:43.174Z,5.70
2023-05-16T10:26:14.529Z,6.03
2023-05-16T10:28:44.360Z,6.30
2023-05-16T10:31:12.666Z,6.18
2023-05-16T10:33:41.175Z,6.20
2023-05-16T10:36:09.897Z,6.05
2023-05-16T10:38:39.709Z,5.85
2023-05-16T10:41:08.762Z,5.82
2023-05-16T10:43:37.392Z,5.32
2023-05-16T10:46:09.732Z,5.88
2023-05-16T10:48:39.732Z,5.43
2023-05-16T10:51:37.745Z,5.75
2023-05-16T10:54:11.347Z,6.10
2023-05-16T10:56:39.579Z,5.88
2023-05-16T10:59:25.230Z,5.90
2023-05-16T11:01:57.881Z,6.03
2023-05-16T11:04:50.202Z,5.47
2023-05-16T11:07:19.631Z,5.53
2023-05-16T11:09:54.130Z,6.38
2023-05-16T11:12:22.227Z,5.75
2023-05-16T11:14:52.959Z,5.82
2023-05-16T11:17:25.337Z,5.90
2023-05-16T11:19:59.043Z,5.60
2023-05-16T11:22:28.107Z,5.70
2023-05-16T11:24:58.592Z,5.77
2023-05-16T11:27:29.004Z,5.83
2023-05-16T11:30:03.237Z,5.90
2023-05-16T11:32:35.924Z,5.70
2023-05-16T11:35:05.139Z,5.83
2023-05-16T11:37:33.301Z,6.10
2023-05-16T11:40:02.310Z,5.77
2023-05-16T11:42:33.959Z,5.40
2023-05-16T11:45:09.210Z,5.43
2023-05-16T11:47:40.367Z,5.50
2023-05-16T11:50:10.036Z,5.20
2023-05-16T11:52:38.732Z,5.20
2023-05-16T11:55:08.090Z,5.17
2023-05-16T11:57:36.194Z,5.03
2023-05-16T12:00:08.140Z,4.60
2023-05-16T12:02:36.166Z,5.03
2023-05-16T12:05:10.387Z,5.28
2023-05-16T12:07:38.828Z,4.60
2023-05-16T12:10:08.927Z,4.70
2023-05-16T12:12:37.382Z,5.20
2023-05-16T12:15:06.747Z,5.37
2023-05-16T12:17:34.992Z,5.60
2023-05-16T12:20:05.827Z,5.53
2023-05-16T12:22:35.607Z,5.60
2023-05-16T12:25:27.215Z,5.97
2023-05-16T12:27:56.508Z,5.90
2023-05-16T12:30:27.226Z,6.60
2023-05-16T12:32:57.989Z,6.43
2023-05-16T12:35:26.952Z,5.20
2023-05-16T12:37:56.316Z,4.90
2023-05-16T12:40:24.465Z,5.40
2023-05-16T12:42:52.975Z,5.60
2023-05-16T12:45:21.157Z,5.60
2023-05-16T12:47:49.215Z,5.20
2023-05-16T12:50:18.561Z,5.67
2023-05-16T12:52:51.218Z,6.27
2023-05-16T12:55:21.586Z,5.70
2023-05-16T12:57:50.542Z,5.57
2023-05-16T13:00:20.838Z,5.47
2023-05-16T13:02:49.832Z,5.47
2023-05-16T13:05:18.591Z,5.70
2023-05-16T13:07:46.543Z,6.20
2023-05-16T13:10:14.472Z,5.90
2023-05-16T13:12:43.774Z,5.47
2023-05-16T13:15:13.105Z,5.73
2023-05-16T13:17:44.244Z,5.70
2023-05-16T13:20:15.156Z,7.00
2023-05-16T13:22:44.979Z,6.57
2023-05-16T13:25:13.433Z,6.40
2023-05-16T13:27:42.144Z,7.00
2023-05-16T13:30:12.292Z,6.93
2023-05-16T13:32:40.278Z,6.83
2023-05-16T13:35:09.769Z,7.07
2023-05-16T13:37:38.421Z,7.30
2023-05-16T13:40:10.199Z,7.20
2023-05-16T13:42:38.737Z,7.77
2023-05-16T13:45:08.003Z,7.43
2023-05-16T13:47:37.858Z,8.27
2023-05-16T13:50:10.028Z,8.40
2023-05-16T13:52:38.561Z,7.83
2023-05-16T13:55:08.025Z,7.70
2023-05-16T13:57:37.201Z,8.10
2023-05-16T14:00:35.092Z,7.80
2023-05-16T14:03:01.638Z,8.27
2023-05-16T14:05:29.697Z,7.80
2023-05-16T14:07:57.615Z,8.60
2023-05-16T14:10:26.672Z,7.80
2023-05-16T14:12:54.948Z,8.60
2023-05-16T14:15:25.301Z,9.37
2023-05-16T14:17:53.370Z,9.37
2023-05-16T14:20:28.640Z,9.10
2023-05-16T14:22:57.058Z,9.57
2023-05-16T14:25:25.062Z,9.33
2023-05-16T14:27:52.955Z,8.77
2023-05-16T14:30:20.961Z,9.37
2023-05-16T14:32:48.892Z,9.53
2023-05-16T14:35:17.001Z,9.33
2023-05-16T14:37:46.409Z,9.07
2023-05-16T14:40:14.395Z,9.33
2023-05-16T14:42:42.272Z,9.03
2023-05-16T14:45:10.819Z,9.40
2023-05-16T14:47:38.929Z,9.43
2023-05-16T14:50:08.049Z,10.10
2023-05-16T14:52:36.022Z,8.63
2023-05-16T14:55:06.124Z,8.40
2023-05-16T14:57:34.588Z,8.23
2023-05-16T15:00:02.517Z,7.90
2023-05-16T15:02:30.616Z,7.80
2023-05-16T15:04:58.570Z,7.37
2023-05-16T15:07:26.767Z,6.70
2023-05-16T15:09:54.682Z,7.13
2023-05-16T15:12:23.919Z,7.20
2023-05-16T15:14:51.814Z,7.03
2023-05-16T15:17:19.723Z,6.40
2023-05-16T15:19:49.069Z,6.77
2023-05-16T15:22:16.941Z,7.20
2023-05-16T15:24:44.945Z,5.77
2023-05-16T15:27:13.086Z,5.43
2023-05-16T15:29:42.386Z,5.47
2023-05-16T15:32:11.343Z,5.20
2023-05-16T15:34:39.515Z,5.80
2023-05-16T15:37:07.433Z,7.10
2023-05-16T15:39:35.974Z,5.13
2023-05-16T15:42:10.534Z,4.80
2023-05-16T15:44:39.938Z,4.90
2023-05-16T15:47:10.734Z,5.03
2023-05-16T15:49:38.829Z,5.23
2023-05-16T15:52:07.264Z,4.67
2023-05-16T15:54:35.378Z,5.73
2023-05-16T15:57:03.319Z,4.50
2023-05-16T15:59:31.237Z,5.17
2023-05-16T16:01:59.350Z,4.77
2023-05-16T16:04:28.710Z,5.00
2023-05-16T16:06:56.589Z,4.50
2023-05-16T16:09:24.715Z,4.73
2023-05-16T16:11:56.723Z,4.10
2023-05-16T16:14:25.370Z,4.37
2023-05-16T16:16:53.360Z,4.37
2023-05-16T16:19:21.468Z,5.20
2023-05-16T16:21:50.889Z,5.20
2023-05-16T16:24:20.174Z,5.87
2023-05-16T16:26:48.077Z,5.43
2023-05-16T16:29:16.126Z,5.40
2023-05-16T16:31:44.159Z,5.83
2023-05-16T16:34:12.155Z,5.30
2023-05-16T16:36:40.068Z,5.83
2023-05-16T16:39:10.316Z,5.40
2023-05-16T16:41:38.339Z,5.73
2023-05-16T16:44:06.673Z,5.70
2023-05-16T16:46:34.717Z,5.80
2023-05-16T16:49:02.658Z,5.40
2023-05-16T16:51:31.342Z,5.20
2023-05-16T16:53:59.759Z,5.47
2023-05-16T16:56:30.158Z,5.00
2023-05-16T16:58:58.117Z,6.07
2023-05-16T17:01:28.969Z,5.93
2023-05-16T17:03:57.707Z,5.90
2023-05-16T17:06:25.600Z,6.10
2023-05-16T17:08:56.732Z,5.60
2023-05-16T17:11:24.653Z,6.23
2023-05-16T17:13:59.359Z,5.17
2023-05-16T17:16:28.834Z,4.60
2023-05-16T17:18:56.878Z,5.40
2023-05-16T17:21:24.757Z,4.13
2023-05-16T17:23:53.402Z,3.70
2023-05-16T17:26:22.097Z,3.87
2023-05-16T17:28:50.520Z,5.37
2023-05-16T17:31:20.080Z,3.67
2023-05-16T17:33:47.929Z,3.80
2023-05-16T17:36:15.959Z,4.90
2023-05-16T17:38:43.829Z,5.63
2023-05-16T17:41:11.724Z,3.87
2023-05-16T17:43:39.629Z,4.50
2023-05-16T17:46:07.715Z,3.67
2023-05-16T17:48:36.982Z,3.90
2023-05-16T17:51:05.300Z,4.10
2023-05-16T17:53:33.192Z,4.27
2023-05-16T17:56:01.235Z,4.17
2023-05-16T17:58:29.363Z,3.80
2023-05-16T18:00:57.708Z,3.77
2023-05-16T18:03:25.657Z,4.03
2023-05-16T18:05:54.989Z,3.90
2023-05-16T18:08:22.970Z,3.97
2023-05-16T18:10:52.549Z,4.20
2023-05-16T18:13:22.209Z,4.10
2023-05-16T18:15:50.391Z,4.07
2023-05-16T18:18:18.769Z,4.20
2023-05-16T18:20:47.186Z,3.60
2023-05-16T18:23:16.958Z,3.67
2023-05-16T18:25:45.460Z,3.73
2023-05-16T18:28:13.332Z,3.50
2023-05-16T18:30:41.388Z,3.70
2023-05-16T18:33:09.400Z,3.43
2023-05-16T18:35:37.395Z,3.20
2023-05-16T18:38:05.342Z,3.50
2023-05-16T18:40:34.735Z,2.90
2023-05-16T18:43:02.728Z,2.80
2023-05-16T18:45:30.815Z,2.73
2023-05-16T18:47:59.170Z,2.83
2023-05-16T18:50:27.776Z,2.50
2023-05-16T18:52:57.638Z,2.50
2023-05-16T18:55:26.345Z,2.50
2023-05-16T18:57:55.978Z,2.50
2023-05-16T19:00:24.018Z,2.40
2023-05-16T19:02:52.071Z,2.37
2023-05-16T19:05:20.170Z,2.43
2023-05-16T19:07:48.296Z,2.73
2023-05-16T19:10:16.171Z,2.20
2023-05-16T19:12:46.909Z,2.23
2023-05-16T19:15:16.338Z,2.10
2023-05-16T19:17:44.419Z,2.40
2023-05-16T19:20:12.728Z,2.80
2023-05-16T19:22:40.680Z,2.30
2023-05-16T19:25:09.840Z,2.27
2023-05-16T19:27:39.892Z,2.73
2023-05-16T19:30:09.065Z,2.30
2023-05-16T19:32:38.495Z,2.27
2023-05-16T19:35:07.553Z,2.30
2023-05-16T19:37:35.475Z,2.10
2023-05-16T19:40:04.968Z,2.13
2023-05-16T19:42:32.972Z,2.50
2023-05-16T19:45:01.015Z,2.60
2023-05-16T19:47:29.011Z,2.40
2023-05-16T19:49:58.766Z,2.17
2023-05-16T19:52:27.103Z,2.70
2023-05-16T19:54:55.004Z,2.30
2023-05-16T19:57:23.057Z,2.33
2023-05-16T19:59:51.105Z,2.60
2023-05-16T20:02:21.169Z,2.50
2023-05-16T20:04:50.616Z,2.40
2023-05-16T20:07:20.198Z,2.27
2023-05-16T20:09:48.241Z,2.57
2023-05-16T20:12:16.468Z,2.90
2023-05-16T20:14:45.017Z,2.63
2023-05-16T20:17:12.951Z,2.37
2023-05-16T20:19:43.927Z,2.70
2023-05-16T20:22:12.376Z,2.47
2023-05-16T20:24:41.708Z,2.33
2023-05-16T20:27:09.626Z,2.30
2023-05-16T20:29:37.494Z,2.17
2023-05-16T20:32:05.981Z,2.70
2023-05-16T20:34:33.887Z,2.73
2023-05-16T20:37:02.806Z,2.20
2023-05-16T20:39:31.745Z,2.40
2023-05-16T20:42:01.170Z,2.33
2023-05-16T20:44:29.679Z,2.20
2023-05-16T20:46:57.708Z,2.47
2023-05-16T20:49:25.668Z,2.10
2023-05-16T20:51:53.516Z,2.27
2023-05-16T20:54:23.415Z,2.40
2023-05-16T20:56:51.419Z,2.63
2023-05-16T20:59:20.645Z,2.37
2023-05-16T21:01:48.505Z,2.43
2023-05-16T21:04:16.530Z,2.40
2023-05-16T21:06:44.624Z,2.40
2023-05-16T21:09:12.531Z,2.83
2023-05-16T21:11:40.420Z,2.27
2023-05-16T21:14:08.481Z,2.27
2023-05-16T21:16:38.398Z,2.20
2023-05-16T21:19:06.510Z,2.37
2023-05-16T21:21:34.444Z,2.33
2023-05-16T21:24:02.404Z,2.30
2023-05-16T21:26:30.364Z,2.13
2023-05-16T21:28:58.389Z,2.70
2023-05-16T21:31:26.306Z,2.40
2023-05-16T21:33:55.607Z,2.43
2023-05-16T21:36:23.625Z,2.00
2023-05-16T21:38:51.555Z,2.30
2023-05-16T21:41:21.647Z,2.30
2023-05-16T21:43:49.595Z,2.30
2023-05-16T21:46:17.599Z,2.13
2023-05-16T21:48:45.608Z,1.80
2023-05-16T21:51:14.959Z,2.07
2023-05-16T21:53:43.010Z,2.50
2023-05-16T21:56:10.890Z,2.23
2023-05-16T21:58:38.839Z,2.33
2023-05-16T22:01:06.804Z,2.60
2023-05-16T22:03:34.989Z,2.00
2023-05-16T22:06:03.018Z,1.90
2023-05-16T22:08:32.309Z,2.07
2023-05-16T22:11:00.195Z,1.73
2023-05-16T22:13:28.081Z,2.20
2023-05-16T22:18:31.329Z,1.67
2023-05-16T22:20:59.639Z,1.97
2023-05-16T22:23:27.680Z,2.10
2023-05-16T22:25:56.968Z,1.83
2023-05-16T22:28:25.400Z,2.00
2023-05-16T22:30:53.267Z,1.97
2023-05-16T22:33:22.717Z,2.13
2023-05-16T22:35:50.881Z,2.33
2023-05-16T22:38:18.768Z,2.27
2023-05-16T22:40:46.874Z,2.07
2023-05-16T22:43:16.121Z,1.67
2023-05-16T22:45:44.197Z,2.30
2023-05-16T22:48:12.191Z,2.17
2023-05-16T22:50:40.194Z,1.90
2023-05-16T22:53:08.103Z,1.90
2023-05-16T22:55:35.980Z,2.37
2023-05-16T22:58:03.910Z,1.80
2023-05-16T23:00:33.212Z,1.77
2023-05-16T23:03:01.206Z,1.83
2023-05-16T23:05:29.381Z,2.03
2023-05-16T23:07:57.466Z,2.07
2023-05-16T23:10:25.346Z,2.13
2023-05-16T23:12:53.248Z,1.90
2023-05-16T23:15:21.942Z,2.40
2023-05-16T23:17:51.639Z,2.37
2023-05-16T23:20:19.722Z,2.30
2023-05-16T23:22:47.651Z,2.03
2023-05-16T23:25:15.512Z,2.03
2023-05-16T23:27:43.398Z,1.97
2023-05-16T23:30:12.396Z,2.00
2023-05-16T23:32:40.300Z,2.00
2023-05-16T23:35:10.742Z,2.27
2023-05-16T23:37:38.613Z,2.10
2023-05-16T23:40:07.906Z,2.40
2023-05-16T23:42:36.860Z,1.90
2023-05-16T23:45:05.195Z,1.90
2023-05-16T23:47:33.129Z,2.00
2023-05-16T23:50:01.081Z,2.30
2023-05-16T23:52:30.412Z,2.43
2023-05-16T23:54:58.432Z,1.90
2023-05-16T23:57:26.358Z,2.10
2023-05-16T23:59:54.321Z,1.83
